createdAt,value
2018-10-04T00:03:03.109Z,2.03
2018-10-04T00:05:32.056Z,1.40
2018-10-04T00:08:00.944Z,1.50
2018-10-04T00:10:29.931Z,1.34
2018-10-04T01:02:44.737Z,1.70
2018-10-04T01:05:13.813Z,1.53
2018-10-04T01:07:43.379Z,1.60
2018-10-04T01:10:12.852Z,1.45
2018-10-04T02:02:37.504Z,1.00
2018-10-04T02:05:06.509Z,1.10
2018-10-04T02:07:35.519Z,1.00
2018-10-04T02:10:05.504Z,1.10
2018-10-04T03:02:39.693Z,1.87
2018-10-04T03:05:08.719Z,1.77
2018-10-04T03:07:37.729Z,1.90
2018-10-04T03:10:06.728Z,2.00
2018-10-04T04:02:47.822Z,3.03
2018-10-04T04:05:16.864Z,2.80
2018-10-04T04:07:45.893Z,2.13
2018-10-04T04:10:14.916Z,2.87
2018-10-04T05:03:05.286Z,2.53
2018-10-04T05:05:34.256Z,2.80
2018-10-04T05:08:04.441Z,2.37
2018-10-04T05:10:34.073Z,2.42
2018-10-04T06:02:37.681Z,2.67
2018-10-04T06:05:06.777Z,2.27
2018-10-04T06:07:36.013Z,2.03
2018-10-04T06:10:05.412Z,1.83
2018-10-04T07:03:07.452Z,1.00
2018-10-04T07:05:36.436Z,1.03
2018-10-04T07:08:05.446Z,1.37
2018-10-04T07:10:34.520Z,1.17
2018-10-04T08:02:37.353Z,1.83
2018-10-04T08:05:06.387Z,1.10
2018-10-04T08:07:35.434Z,1.00
2018-10-04T08:10:04.482Z,0.90
2018-10-04T09:02:37.485Z,0.83
2018-10-04T09:05:29.493Z,0.67
2018-10-04T09:07:59.180Z,0.80
2018-10-04T10:02:50.617Z,0.70
2018-10-04T10:05:19.894Z,1.07
2018-10-04T10:07:49.899Z,0.70
2018-10-04T11:02:37.137Z,0.80
2018-10-04T11:05:06.158Z,0.60
2018-10-04T11:07:35.126Z,0.50
2018-10-04T11:10:04.170Z,0.80
2018-10-04T12:02:54.140Z,0.50
2018-10-04T12:05:23.209Z,0.53
2018-10-04T12:07:52.372Z,0.50
2018-10-04T12:10:21.388Z,0.50
2018-10-04T13:02:47.818Z,0.60
2018-10-04T13:05:16.951Z,0.73
2018-10-04T13:07:45.968Z,0.40
2018-10-04T14:02:37.414Z,1.00
2018-10-04T14:05:06.615Z,0.90
2018-10-04T14:07:35.589Z,0.80
2018-10-04T14:10:05.669Z,1.20
2018-10-04T15:02:37.177Z,1.10
2018-10-04T15:05:06.178Z,1.20
2018-10-04T15:07:35.274Z,0.97
2018-10-04T15:10:04.363Z,0.80
2018-10-04T16:02:39.437Z,1.97
2018-10-04T16:05:08.490Z,1.67
2018-10-04T16:07:37.545Z,1.77
2018-10-04T16:10:07.005Z,1.60
2018-10-04T17:02:47.301Z,1.67
2018-10-04T17:05:16.342Z,1.43
2018-10-04T17:07:45.613Z,1.60
2018-10-04T18:02:39.796Z,2.10
2018-10-04T18:05:10.144Z,1.90
2018-10-04T18:07:39.471Z,1.97
2018-10-04T19:02:37.029Z,2.60
2018-10-04T19:05:06.298Z,3.20
2018-10-04T19:07:35.534Z,3.37
2018-10-04T19:10:04.773Z,3.00
2018-10-04T20:02:37.965Z,4.60
2018-10-04T20:05:08.555Z,3.67
2018-10-04T20:07:37.722Z,4.10
2018-10-04T21:02:56.326Z,5.10
2018-10-04T21:05:25.449Z,5.20
2018-10-04T21:07:54.593Z,4.90
2018-10-04T21:10:24.310Z,5.20
2018-10-04T22:02:38.918Z,6.63
2018-10-04T22:05:07.814Z,6.40
2018-10-04T22:07:36.782Z,5.83
2018-10-04T22:10:06.626Z,6.03
2018-10-04T23:02:38.874Z,6.97
2018-10-04T23:05:08.572Z,7.63
2018-10-04T23:07:37.501Z,8.20
2018-10-04T23:10:06.398Z,7.63
